Time;durP1;ratioP1;P1;durP2;ratioP2;P2;SDS_P1;SDS_P2;PMS_P1;PMS_P2;Temp;Humidity;BMP_temperature;BMP_pressure;BME280_temperature;BME280_humidity;BME280_pressure;Samples;Min_cycle;Max_cycle;Signal;HPM_P1;HPM_P2
2022/12/07 00:01:27;;;;;;;10.73;8.03;;;5.70;99.90;;;;;;5034883;28;20218;-74
2022/12/07 00:04:00;;;;;;;9.40;8.50;;;5.70;99.90;;;;;;5035113;28;20659;-73
2022/12/07 00:06:27;;;;;;;10.60;8.53;;;5.70;99.90;;;;;;5035664;28;20631;-74
2022/12/07 00:08:54;;;;;;;9.67;7.73;;;5.60;99.90;;;;;;5035547;28;20199;-74
2022/12/07 00:11:23;;;;;;;13.97;7.83;;;5.60;99.90;;;;;;5034515;28;20226;-74
2022/12/07 00:13:53;;;;;;;10.93;7.63;;;5.50;99.90;;;;;;5034561;28;20213;-75
2022/12/07 00:16:21;;;;;;;12.53;7.93;;;5.50;99.90;;;;;;5034288;28;20195;-73
2022/12/07 00:18:48;;;;;;;13.68;10.13;;;5.50;99.90;;;;;;5033174;28;20419;-73
2022/12/07 00:21:18;;;;;;;10.77;8.57;;;5.50;99.90;;;;;;5033191;28;20203;-73
2022/12/07 00:23:46;;;;;;;12.30;8.43;;;5.60;99.90;;;;;;5035217;28;20196;-75
2022/12/07 00:26:18;;;;;;;8.60;7.67;;;5.50;99.90;;;;;;5034115;28;20203;-74
2022/12/07 00:28:46;;;;;;;9.97;7.77;;;5.50;99.90;;;;;;5034899;28;20207;-73
2022/12/07 00:31:14;;;;;;;10.57;7.30;;;5.40;99.90;;;;;;5034815;28;20239;-74
2022/12/07 00:33:41;;;;;;;8.87;7.27;;;5.40;99.90;;;;;;5033049;28;20207;-73
2022/12/07 00:36:10;;;;;;;10.90;8.13;;;5.50;99.90;;;;;;5034089;28;20203;-73
2022/12/07 00:38:39;;;;;;;10.53;7.97;;;5.50;99.90;;;;;;5034308;28;20670;-73
2022/12/07 00:41:08;;;;;;;10.97;7.40;;;5.40;99.90;;;;;;5033136;28;20203;-73
2022/12/07 00:43:34;;;;;;;9.83;7.73;;;5.50;99.90;;;;;;5033858;28;20460;-76
2022/12/07 00:46:01;;;;;;;12.17;7.67;;;5.50;99.90;;;;;;5033241;28;20217;-75
2022/12/07 00:48:28;;;;;;;12.23;9.45;;;5.60;99.90;;;;;;5032206;28;20431;-73
2022/12/07 00:50:55;;;;;;;12.87;8.40;;;5.60;99.90;;;;;;5032698;28;20225;-76
2022/12/07 00:53:22;;;;;;;9.47;7.73;;;5.60;99.90;;;;;;5033943;28;20227;-74
2022/12/07 00:55:50;;;;;;;12.53;7.90;;;5.60;99.90;;;;;;5033679;28;20195;-73
2022/12/07 00:58:17;;;;;;;8.87;6.90;;;5.60;99.90;;;;;;5034269;28;20207;-75
2022/12/07 01:00:44;;;;;;;12.23;7.60;;;5.60;99.90;;;;;;5034172;28;20237;-74
2022/12/07 01:03:12;;;;;;;7.63;6.87;;;5.60;99.90;;;;;;5034665;28;20203;-74
2022/12/07 01:05:39;;;;;;;11.67;7.53;;;5.60;99.90;;;;;;5033719;28;20564;-75
2022/12/07 01:08:07;;;;;;;12.53;7.20;;;5.70;99.90;;;;;;5034403;28;20230;-74
2022/12/07 01:10:34;;;;;;;9.63;6.77;;;5.70;99.90;;;;;;5034089;28;20241;-73
2022/12/07 01:13:02;;;;;;;9.93;7.33;;;5.60;99.90;;;;;;5034688;28;20230;-74
2022/12/07 01:15:29;;;;;;;8.87;6.97;;;5.50;99.90;;;;;;5033393;28;20203;-74
2022/12/07 01:17:55;;;;;;;8.33;7.03;;;5.50;99.90;;;;;;5033780;28;20203;-73
2022/12/07 01:20:22;;;;;;;12.23;6.73;;;5.50;99.90;;;;;;5034142;28;20202;-73
2022/12/07 01:22:49;;;;;;;9.27;7.03;;;5.50;99.90;;;;;;5034208;28;20535;-75
2022/12/07 01:25:16;;;;;;;9.03;6.90;;;5.50;99.90;;;;;;5033909;28;20203;-75
2022/12/07 01:27:43;;;;;;;12.40;6.57;;;5.40;99.90;;;;;;5033370;28;20210;-74
2022/12/07 01:30:15;;;;;;;8.33;7.10;;;5.40;99.90;;;;;;5032267;28;20233;-73
2022/12/07 01:32:41;;;;;;;6.60;5.80;;;5.40;99.90;;;;;;5032256;28;20234;-74
2022/12/07 01:35:08;;;;;;;7.97;5.93;;;5.40;99.90;;;;;;5032661;28;20195;-74
2022/12/07 01:37:36;;;;;;;7.80;5.87;;;5.50;99.90;;;;;;5034142;28;20237;-74
2022/12/07 01:40:05;;;;;;;12.90;6.00;;;5.50;99.90;;;;;;5033575;28;20203;-74
2022/12/07 01:42:32;;;;;;;8.50;6.03;;;5.50;99.90;;;;;;5033735;28;20213;-74
2022/12/07 01:45:44;;;;;;;9.43;5.73;;;5.50;99.90;;;;;;5032166;28;20215;-74
2022/12/07 01:48:16;;;;;;;11.48;7.28;;;5.50;99.90;;;;;;5031759;28;20783;-75
2022/12/07 01:50:45;;;;;;;8.43;6.13;;;5.50;99.90;;;;;;5034010;28;20203;-73
2022/12/07 01:53:14;;;;;;;7.53;5.40;;;5.60;99.90;;;;;;5033674;28;20219;-74
2022/12/07 01:55:44;;;;;;;10.73;5.43;;;5.60;99.90;;;;;;5032975;28;20199;-73
2022/12/07 01:58:13;;;;;;;9.93;5.53;;;5.50;99.90;;;;;;5033733;28;20203;-75
2022/12/07 02:00:40;;;;;;;5.60;4.93;;;5.50;99.90;;;;;;5034017;28;20199;-74
2022/12/07 02:03:10;;;;;;;7.90;5.17;;;5.50;99.90;;;;;;5034142;28;20207;-74
2022/12/07 02:05:41;;;;;;;5.50;4.97;;;5.40;99.90;;;;;;5034082;28;20203;-76
2022/12/07 02:08:08;;;;;;;8.33;5.30;;;5.40;99.90;;;;;;5033482;28;20218;-74
2022/12/07 02:10:35;;;;;;;8.17;4.63;;;5.30;99.90;;;;;;5033165;28;20250;-75
2022/12/07 02:13:06;;;;;;;6.17;5.03;;;5.40;99.90;;;;;;5033463;28;20203;-74
2022/12/07 02:15:49;;;;;;;6.53;4.97;;;5.40;99.90;;;;;;5033904;28;20211;-74
2022/12/07 02:18:21;;;;;;;8.30;5.10;;;5.40;99.90;;;;;;5034220;28;20199;-74
2022/12/07 02:20:56;;;;;;;10.73;6.07;;;5.30;99.90;;;;;;5035491;28;20195;-73
2022/12/07 02:23:42;;;;;;;12.60;5.20;;;5.30;99.90;;;;;;5035658;28;20214;-73
2022/12/07 02:26:34;;;;;;;5.80;5.20;;;5.30;99.90;;;;;;5035708;28;20200;-74
2022/12/07 02:29:13;;;;;;;6.60;4.87;;;5.20;99.90;;;;;;5036263;28;20222;-74
2022/12/07 02:31:47;;;;;;;5.73;5.13;;;5.20;99.90;;;;;;5037159;28;20223;-75
2022/12/07 02:34:22;;;;;;;9.07;5.33;;;5.20;99.90;;;;;;5036541;28;20218;-75
2022/12/07 02:36:56;;;;;;;7.93;6.03;;;5.30;99.90;;;;;;5034818;28;20192;-75
2022/12/07 02:39:32;;;;;;;10.63;6.10;;;5.30;99.90;;;;;;5036295;28;20206;-75
2022/12/07 02:42:04;;;;;;;8.83;5.37;;;5.30;99.90;;;;;;5036065;28;20195;-74
2022/12/07 02:44:33;;;;;;;9.23;5.93;;;5.20;99.90;;;;;;5035554;28;20195;-74
2022/12/07 02:47:03;;;;;;;11.02;8.43;;;5.30;99.90;;;;;;5035241;28;20426;-74
2022/12/07 02:49:32;;;;;;;10.80;7.10;;;5.50;99.90;;;;;;5036650;28;20210;-74
2022/12/07 02:51:58;;;;;;;9.07;6.10;;;5.50;99.90;;;;;;5036324;28;20227;-74
2022/12/07 02:54:25;;;;;;;10.30;6.67;;;5.40;99.90;;;;;;5036405;28;20195;-73
2022/12/07 02:56:59;;;;;;;8.37;6.50;;;5.30;99.90;;;;;;5035987;28;20203;-73
2022/12/07 02:59:37;;;;;;;10.07;6.13;;;5.30;99.90;;;;;;5035146;28;20210;-75
2022/12/07 03:02:16;;;;;;;10.20;6.47;;;5.20;99.90;;;;;;5034900;28;20650;-72
2022/12/07 03:04:53;;;;;;;12.30;6.77;;;5.30;99.90;;;;;;5034641;28;20560;-77
2022/12/07 03:07:31;;;;;;;12.03;6.63;;;5.30;99.90;;;;;;5035570;28;20225;-73
2022/12/07 03:10:03;;;;;;;12.17;7.13;;;5.30;99.90;;;;;;5035917;28;20249;-73
2022/12/07 03:12:36;;;;;;;10.00;7.40;;;5.30;99.90;;;;;;5035574;28;20322;-75
2022/12/07 03:15:10;;;;;;;11.98;7.88;;;5.10;99.90;;;;;;5035256;28;20434;-73
2022/12/07 03:17:41;;;;;;;12.27;6.93;;;5.20;99.90;;;;;;5036275;28;20207;-75
2022/12/07 03:20:16;;;;;;;9.87;6.57;;;5.20;99.90;;;;;;5035564;28;20191;-75
2022/12/07 03:22:45;;;;;;;14.33;7.63;;;5.20;99.90;;;;;;5035976;28;20205;-74
2022/12/07 03:25:15;;;;;;;10.30;7.13;;;5.10;99.90;;;;;;5035748;28;20203;-74
2022/12/07 03:27:45;;;;;;;9.70;7.07;;;5.10;99.90;;;;;;5035267;28;20215;-73
2022/12/07 03:30:18;;;;;;;8.93;8.03;;;5.10;99.90;;;;;;5034443;28;20203;-73
2022/12/07 03:32:50;;;;;;;11.23;7.77;;;5.20;99.90;;;;;;5035095;28;20226;-75
2022/12/07 03:35:22;;;;;;;11.23;6.97;;;5.30;99.90;;;;;;5035272;28;20211;-73
2022/12/07 03:37:53;;;;;;;12.00;7.20;;;5.30;99.90;;;;;;5034610;28;20203;-73
2022/12/07 03:40:24;;;;;;;14.70;7.57;;;5.30;99.90;;;;;;5034183;28;20797;-73
2022/12/07 03:42:53;;;;;;;13.37;7.73;;;5.30;99.90;;;;;;5035106;28;20207;-74
2022/12/07 03:45:27;;;;;;;10.53;7.00;;;5.20;99.90;;;;;;5035558;28;20218;-72
2022/12/07 03:48:03;;;;;;;12.07;7.53;;;5.10;99.90;;;;;;5035403;28;20552;-75
2022/12/07 03:50:38;;;;;;;14.67;8.00;;;5.10;99.90;;;;;;5034511;28;20199;-73
2022/12/07 03:53:12;;;;;;;12.53;7.50;;;5.10;99.90;;;;;;5034982;28;20246;-75
2022/12/07 03:55:43;;;;;;;13.43;7.40;;;5.00;99.90;;;;;;5035113;28;20212;-72
2022/12/07 03:58:13;;;;;;;13.17;8.07;;;5.00;99.90;;;;;;5033869;28;20207;-75
2022/12/07 04:00:41;;;;;;;15.93;8.13;;;5.10;99.90;;;;;;5033662;28;20219;-74
2022/12/07 04:03:08;;;;;;;12.17;7.73;;;4.90;99.90;;;;;;5033907;28;20203;-75
2022/12/07 04:05:35;;;;;;;12.87;7.70;;;4.90;99.90;;;;;;5034027;28;20209;-73
2022/12/07 04:08:02;;;;;;;10.93;7.47;;;4.90;99.90;;;;;;5033912;28;20225;-73
2022/12/07 04:10:29;;;;;;;11.03;7.57;;;4.90;99.90;;;;;;5034123;28;20208;-74
2022/12/07 04:12:56;;;;;;;12.03;7.53;;;4.90;99.90;;;;;;5034325;28;20235;-74
2022/12/07 04:15:23;;;;;;;12.52;7.80;;;4.90;99.90;;;;;;5033246;28;20431;-73
2022/12/07 04:17:51;;;;;;;13.07;8.03;;;4.90;99.90;;;;;;5034475;28;20199;-75
2022/12/07 04:20:18;;;;;;;9.57;7.30;;;4.90;99.90;;;;;;5034580;28;20250;-73
2022/12/07 04:22:45;;;;;;;11.97;6.90;;;4.90;99.90;;;;;;5023622;28;20207;-73
2022/12/07 04:25:11;;;;;;;8.10;6.90;;;4.60;99.90;;;;;;5012615;28;20212;-74
2022/12/07 04:27:38;;;;;;;9.10;7.00;;;4.70;99.90;;;;;;5028543;28;20210;-74
2022/12/07 04:30:06;;;;;;;9.27;7.13;;;4.70;99.90;;;;;;5031402;28;20203;-74
2022/12/07 04:32:33;;;;;;;12.47;7.63;;;4.80;99.90;;;;;;5032605;28;20226;-73
2022/12/07 04:35:01;;;;;;;8.93;7.23;;;4.80;99.90;;;;;;5027279;28;20670;-74
2022/12/07 04:37:28;;;;;;;11.37;7.40;;;4.80;99.90;;;;;;5014607;28;20663;-73
2022/12/07 04:39:54;;;;;;;8.43;6.50;;;4.70;99.90;;;;;;5030045;28;20214;-73
2022/12/07 04:42:21;;;;;;;7.70;6.67;;;4.70;99.90;;;;;;5031936;28;20199;-72
2022/12/07 04:44:48;;;;;;;12.03;6.90;;;4.70;99.90;;;;;;5031288;28;20203;-73
2022/12/07 04:47:14;;;;;;;13.27;9.90;;;4.60;99.90;;;;;;5026933;28;20432;-73
2022/12/07 04:49:41;;;;;;;12.30;8.07;;;4.70;99.90;;;;;;5012194;28;20929;-73
2022/12/07 04:52:09;;;;;;;10.97;7.30;;;4.70;99.90;;;;;;5012294;28;20231;-73
2022/12/07 04:54:36;;;;;;;13.27;7.97;;;4.70;99.90;;;;;;5013871;28;20207;-73
2022/12/07 04:57:03;;;;;;;10.57;7.20;;;4.60;99.90;;;;;;5013425;28;20208;-74
2022/12/07 04:59:29;;;;;;;12.10;7.37;;;4.60;99.90;;;;;;5024624;28;20203;-74
2022/12/07 05:01:56;;;;;;;11.17;7.27;;;4.60;99.90;;;;;;5025686;28;20200;-73
2022/12/07 05:04:23;;;;;;;11.30;6.97;;;4.60;99.90;;;;;;5021452;28;20211;-73
2022/12/07 05:06:50;;;;;;;12.73;7.27;;;4.60;99.90;;;;;;5031051;28;20218;-73
2022/12/07 05:09:18;;;;;;;10.57;7.00;;;4.50;99.90;;;;;;5031542;28;20208;-73
2022/12/07 05:11:45;;;;;;;9.83;7.00;;;4.50;99.90;;;;;;5029767;28;20226;-74
2022/12/07 05:14:14;;;;;;;13.70;7.47;;;4.50;99.90;;;;;;5030376;28;20202;-73
2022/12/07 05:16:41;;;;;;;10.73;6.73;;;4.60;99.90;;;;;;5031904;28;20206;-73
2022/12/07 05:19:08;;;;;;;16.73;8.33;;;4.50;99.90;;;;;;5029992;28;20203;-74
2022/12/07 05:21:37;;;;;;;11.80;8.83;;;4.50;99.90;;;;;;5030609;28;20203;-74
2022/12/07 05:24:04;;;;;;;12.40;7.90;;;4.40;99.90;;;;;;5024835;28;20206;-75
2022/12/07 05:26:32;;;;;;;11.20;6.97;;;4.40;99.90;;;;;;5013503;28;20211;-75
2022/12/07 05:28:59;;;;;;;13.30;7.17;;;4.50;99.90;;;;;;5012409;28;20208;-74
2022/12/07 05:31:27;;;;;;;12.93;7.23;;;4.60;99.90;;;;;;5012404;28;20651;-74
2022/12/07 05:33:54;;;;;;;12.77;6.53;;;4.50;99.90;;;;;;5013641;28;20204;-73
2022/12/07 05:36:21;;;;;;;14.20;7.47;;;4.50;99.90;;;;;;5022563;28;20203;-73
2022/12/07 05:38:48;;;;;;;10.00;6.17;;;4.60;99.90;;;;;;5013181;28;20199;-74
2022/12/07 05:44:03;;;;;;;8.90;6.47;;;4.60;99.90;;;;;;5013364;28;20584;-74
2022/12/07 05:46:30;;;;;;;10.55;8.60;;;4.60;99.90;;;;;;5010616;28;21141;-73
2022/12/07 05:48:56;;;;;;;11.90;6.77;;;4.70;99.90;;;;;;5012893;28;20207;-73
2022/12/07 05:51:23;;;;;;;9.30;6.07;;;4.70;99.90;;;;;;5013126;28;20204;-76
2022/12/07 05:53:50;;;;;;;9.83;5.70;;;4.70;99.90;;;;;;5015553;28;20268;-74
2022/12/07 05:56:17;;;;;;;6.77;5.73;;;4.60;99.90;;;;;;5016754;28;20196;-73
2022/12/07 06:01:29;;;;;;;7.77;6.03;;;4.70;99.90;;;;;;5026026;28;20225;-73
2022/12/07 06:03:56;;;;;;;9.83;6.00;;;4.70;99.90;;;;;;5034908;28;20210;-74
2022/12/07 06:06:23;;;;;;;10.27;6.23;;;4.80;99.90;;;;;;5035974;28;20195;-73
2022/12/07 06:08:49;;;;;;;7.73;5.97;;;4.80;99.90;;;;;;5036385;28;20334;-74
2022/12/07 06:14:01;;;;;;;7.57;6.63;;;5.20;99.90;;;;;;5033497;28;20253;-72
2022/12/07 06:16:31;;;;;;;10.50;6.63;;;5.30;99.90;;;;;;5024909;28;20305;-73
2022/12/07 06:18:58;;;;;;;12.33;6.40;;;5.30;99.90;;;;;;5035260;28;20227;-73
2022/12/07 06:21:26;;;;;;;10.40;7.00;;;5.30;99.90;;;;;;5035535;28;20211;-73
2022/12/07 06:23:53;;;;;;;13.50;6.47;;;5.30;99.90;;;;;;5034435;28;20199;-73
2022/12/07 06:26:20;;;;;;;10.17;6.23;;;5.20;99.90;;;;;;5035767;28;20666;-74
2022/12/07 06:28:48;;;;;;;9.03;6.13;;;5.10;99.90;;;;;;5033812;28;20203;-74
2022/12/07 06:31:15;;;;;;;9.57;6.03;;;5.10;99.90;;;;;;5035813;28;20195;-74
2022/12/07 06:33:43;;;;;;;11.60;6.20;;;5.10;99.90;;;;;;5035399;28;20238;-75
2022/12/07 06:36:10;;;;;;;11.37;5.90;;;5.10;99.90;;;;;;5035757;28;20207;-73
2022/12/07 06:38:37;;;;;;;12.80;6.00;;;5.10;99.90;;;;;;5036130;28;20226;-73
2022/12/07 06:41:04;;;;;;;10.73;5.87;;;5.10;99.90;;;;;;5035416;28;20662;-73
2022/12/07 06:43:31;;;;;;;12.80;6.60;;;5.00;99.90;;;;;;5035805;28;20204;-72
2022/12/07 06:45:58;;;;;;;11.37;5.93;;;5.00;99.90;;;;;;5035932;28;20198;-72
2022/12/07 06:48:25;;;;;;;12.70;6.30;;;4.90;99.90;;;;;;5034369;28;20203;-73
2022/12/07 06:50:53;;;;;;;12.87;6.70;;;4.90;99.90;;;;;;5035822;28;20207;-77
2022/12/07 06:53:20;;;;;;;10.77;6.00;;;4.80;99.90;;;;;;5035851;28;20235;-74
2022/12/07 06:55:47;;;;;;;12.63;5.80;;;4.70;99.90;;;;;;5036084;28;20203;-73
2022/12/07 06:58:13;;;;;;;11.00;5.00;;;4.70;99.90;;;;;;5035559;28;20213;-74
2022/12/07 07:00:40;;;;;;;10.03;4.87;;;4.70;99.90;;;;;;5035081;28;20195;-76
2022/12/07 07:03:07;;;;;;;13.93;5.80;;;4.70;99.90;;;;;;5034938;28;20298;-73
2022/12/07 07:05:34;;;;;;;9.17;5.30;;;4.70;99.90;;;;;;5034982;28;20423;-74
2022/12/07 07:08:02;;;;;;;12.10;5.43;;;4.70;99.90;;;;;;5035798;28;20219;-73
2022/12/07 07:10:29;;;;;;;8.47;6.27;;;4.80;99.90;;;;;;5033822;28;20191;-73
2022/12/07 07:12:56;;;;;;;9.63;5.33;;;4.90;99.90;;;;;;5036020;28;20226;-73
2022/12/07 07:15:22;;;;;;;11.67;5.20;;;4.90;99.90;;;;;;5036362;28;20199;-74
2022/12/07 07:17:49;;;;;;;10.57;5.57;;;4.90;99.90;;;;;;5034902;28;20187;-73
2022/12/07 07:20:16;;;;;;;13.77;5.40;;;5.00;99.90;;;;;;5035418;28;20203;-74
2022/12/07 07:22:43;;;;;;;13.20;5.17;;;4.90;99.90;;;;;;5036265;28;20203;-72
2022/12/07 07:25:13;;;;;;;12.17;6.07;;;5.00;99.90;;;;;;5036233;28;20207;-74
2022/12/07 07:27:40;;;;;;;10.83;5.37;;;5.10;99.90;;;;;;5036000;28;20294;-73
2022/12/07 07:30:08;;;;;;;20.03;6.13;;;5.20;99.90;;;;;;5021878;28;20576;-72
2022/12/07 07:32:35;;;;;;;6.90;5.70;;;5.10;99.90;;;;;;5015448;28;20223;-74
2022/12/07 07:35:02;;;;;;;11.77;6.20;;;5.10;99.90;;;;;;5025004;28;20203;-74
2022/12/07 07:37:29;;;;;;;9.17;5.93;;;5.00;99.90;;;;;;5017602;28;20188;-75
2022/12/07 07:39:55;;;;;;;12.20;5.40;;;5.10;99.90;;;;;;5013742;28;20199;-74
2022/12/07 07:42:24;;;;;;;14.63;7.13;;;5.20;99.90;;;;;;5014052;28;20565;-72
2022/12/07 07:44:51;;;;;;;11.67;6.63;;;5.10;99.90;;;;;;5014070;28;20204;-74
2022/12/07 07:47:17;;;;;;;11.27;6.40;;;5.00;99.90;;;;;;5014446;28;20199;-73
2022/12/07 07:49:44;;;;;;;8.40;6.80;;;5.00;99.90;;;;;;5014021;28;20204;-73
2022/12/07 07:52:11;;;;;;;9.63;6.30;;;5.00;99.90;;;;;;5014971;28;20226;-74
2022/12/07 07:54:37;;;;;;;13.27;7.20;;;4.90;99.90;;;;;;5015584;28;20581;-72
2022/12/07 07:57:04;;;;;;;11.70;6.73;;;4.90;99.90;;;;;;5014709;28;20192;-74
2022/12/07 07:59:32;;;;;;;9.17;6.67;;;4.80;99.90;;;;;;5014262;28;20215;-73
2022/12/07 08:01:59;;;;;;;13.90;7.53;;;4.80;99.90;;;;;;5013329;28;20218;-75
2022/12/07 08:04:26;;;;;;;12.53;7.33;;;4.80;99.90;;;;;;5013114;28;20208;-73
2022/12/07 08:06:53;;;;;;;18.30;8.17;;;4.80;99.90;;;;;;5013244;28;20599;-74
2022/12/07 08:09:19;;;;;;;11.60;7.50;;;4.80;99.90;;;;;;5013050;28;20209;-74
2022/12/07 08:11:46;;;;;;;14.47;7.47;;;4.90;99.90;;;;;;5017796;28;20204;-72
2022/12/07 08:14:14;;;;;;;14.37;7.90;;;4.90;99.90;;;;;;5024527;28;20208;-74
2022/12/07 08:16:42;;;;;;;16.27;7.37;;;5.00;99.90;;;;;;5017507;28;20693;-73
2022/12/07 08:19:09;;;;;;;12.93;7.13;;;5.00;99.90;;;;;;5024591;28;20203;-75
2022/12/07 08:21:35;;;;;;;10.93;7.53;;;5.00;99.90;;;;;;5020753;28;20215;-73
2022/12/07 08:24:02;;;;;;;14.43;7.60;;;4.90;99.90;;;;;;5027769;28;20195;-73
2022/12/07 08:26:29;;;;;;;12.83;7.07;;;4.90;99.90;;;;;;5016238;28;20204;-75
2022/12/07 08:28:55;;;;;;;10.10;6.73;;;5.00;99.90;;;;;;5012602;28;20204;-75
2022/12/07 08:31:22;;;;;;;14.60;7.23;;;4.90;99.90;;;;;;5017169;28;20203;-72
2022/12/07 08:33:51;;;;;;;7.60;6.70;;;4.90;99.90;;;;;;5019923;28;20227;-72
2022/12/07 08:36:18;;;;;;;10.73;7.13;;;4.90;99.90;;;;;;5013503;28;20691;-73
2022/12/07 08:38:45;;;;;;;9.57;6.53;;;4.80;99.90;;;;;;5013829;28;20204;-73
2022/12/07 08:41:12;;;;;;;30.70;8.73;;;4.90;99.90;;;;;;5013855;28;20200;-73
2022/12/07 08:43:38;;;;;;;11.90;7.50;;;4.90;99.90;;;;;;5015417;28;20200;-74
2022/12/07 08:46:09;;;;;;;13.68;7.78;;;4.90;99.90;;;;;;5031036;28;20438;-77
2022/12/07 08:48:41;;;;;;;11.63;7.40;;;5.00;99.90;;;;;;5029472;28;20714;-74
2022/12/07 08:51:10;;;;;;;8.67;6.40;;;5.10;99.90;;;;;;5029776;28;20191;-76
2022/12/07 08:53:38;;;;;;;11.43;6.53;;;5.20;99.90;;;;;;5028235;28;20227;-74
2022/12/07 08:56:06;;;;;;;58.93;11.47;;;5.20;99.90;;;;;;5020521;28;20195;-72
2022/12/07 08:58:34;;;;;;;8.33;5.50;;;5.20;99.90;;;;;;5022453;28;20199;-73
2022/12/07 09:01:00;;;;;;;10.87;6.20;;;5.40;99.90;;;;;;5022691;28;20210;-76
2022/12/07 09:03:27;;;;;;;10.30;7.07;;;5.40;99.90;;;;;;5021121;28;20671;-72
2022/12/07 09:05:55;;;;;;;7.83;5.53;;;5.40;99.90;;;;;;5031289;28;20200;-73
2022/12/07 09:08:26;;;;;;;13.43;5.60;;;5.50;99.90;;;;;;5031589;28;20218;-73
2022/12/07 09:10:52;;;;;;;9.33;5.23;;;5.60;99.90;;;;;;5032235;28;20203;-74
2022/12/07 09:13:19;;;;;;;8.63;6.10;;;5.70;99.90;;;;;;5032328;28;20237;-73
2022/12/07 09:15:46;;;;;;;9.00;5.97;;;5.90;99.90;;;;;;5032321;28;20206;-73
2022/12/07 09:18:13;;;;;;;11.73;6.20;;;6.00;99.90;;;;;;5032050;28;20195;-73
2022/12/07 09:20:39;;;;;;;9.47;4.87;;;6.10;99.90;;;;;;5032073;28;20187;-75
2022/12/07 09:23:07;;;;;;;9.83;5.20;;;6.20;99.90;;;;;;5032632;28;20211;-74
2022/12/07 09:25:35;;;;;;;6.93;4.97;;;6.30;99.90;;;;;;5029065;28;20192;-73
2022/12/07 09:28:02;;;;;;;12.20;5.17;;;6.50;99.90;;;;;;5021349;28;20200;-72
2022/12/07 09:30:29;;;;;;;8.70;5.87;;;6.20;99.90;;;;;;5026349;28;20202;-74
2022/12/07 09:32:56;;;;;;;9.03;5.53;;;6.20;99.90;;;;;;5020693;28;20624;-74
2022/12/07 09:35:24;;;;;;;5.27;4.43;;;6.20;99.90;;;;;;5035938;28;20206;-74
2022/12/07 09:37:51;;;;;;;8.90;6.40;;;6.10;99.90;;;;;;5036734;28;20206;-74
2022/12/07 09:40:20;;;;;;;10.07;6.53;;;6.10;99.90;;;;;;5034913;28;20207;-74
2022/12/07 09:42:52;;;;;;;122.30;16.97;;;6.10;99.90;;;;;;5035068;28;20553;-73
2022/12/07 09:45:22;;;;;;;77.67;12.60;;;6.10;99.90;;;;;;5035644;28;20191;-73
2022/12/07 09:47:49;;;;;;;9.93;6.37;;;6.30;99.90;;;;;;5038656;28;20203;-74
2022/12/07 09:50:19;;;;;;;8.13;5.27;;;6.40;99.90;;;;;;5036021;28;20199;-74
2022/12/07 09:52:48;;;;;;;10.27;5.03;;;6.40;99.90;;;;;;5036159;28;20226;-74
2022/12/07 09:55:20;;;;;;;7.17;4.93;;;6.40;99.90;;;;;;5024955;28;20200;-74
2022/12/07 09:57:48;;;;;;;9.83;4.30;;;6.40;99.90;;;;;;5035214;28;20211;-73
2022/12/07 10:00:17;;;;;;;10.03;4.83;;;6.50;99.90;;;;;;5036018;28;20199;-76
2022/12/07 10:02:47;;;;;;;12.33;4.23;;;6.60;99.90;;;;;;5036297;28;20211;-75
2022/12/07 10:05:17;;;;;;;7.93;4.40;;;6.50;99.90;;;;;;5035633;28;20285;-74
2022/12/07 10:07:44;;;;;;;7.90;4.27;;;6.70;99.90;;;;;;5032605;28;20611;-75
2022/12/07 10:10:16;;;;;;;106.57;14.17;;;6.40;99.90;;;;;;5034676;28;20210;-75
2022/12/07 10:13:00;;;;;;;194.97;24.77;;;6.60;99.90;;;;;;5034972;28;20207;-75
2022/12/07 10:15:52;;;;;;;7.00;3.43;;;6.50;99.90;;;;;;5034717;28;20199;-76
2022/12/07 10:18:31;;;;;;;7.17;4.20;;;6.50;99.90;;;;;;5015245;28;20727;-73
2022/12/07 10:21:13;;;;;;;6.23;3.50;;;6.40;99.90;;;;;;5024417;28;20204;-75
2022/12/07 10:23:42;;;;;;;7.03;3.40;;;6.40;99.90;;;;;;5026727;28;20203;-75
2022/12/07 10:26:29;;;;;;;5.03;3.63;;;6.40;99.90;;;;;;5026015;28;20192;-73
2022/12/07 10:29:00;;;;;;;8.77;3.43;;;6.50;99.90;;;;;;5026292;28;20199;-74
2022/12/07 10:31:27;;;;;;;9.90;4.23;;;6.60;99.90;;;;;;5024270;28;20210;-73
2022/12/07 10:33:56;;;;;;;6.40;3.40;;;6.60;99.90;;;;;;5024433;28;20228;-75
2022/12/07 10:36:25;;;;;;;7.00;3.80;;;6.60;99.90;;;;;;5025056;28;20567;-73
2022/12/07 10:39:00;;;;;;;10.10;4.10;;;6.60;99.90;;;;;;5034605;28;20215;-74
2022/12/07 10:41:27;;;;;;;10.23;4.10;;;6.60;99.90;;;;;;5034836;28;20642;-73
2022/12/07 10:43:56;;;;;;;12.03;4.17;;;6.50;99.90;;;;;;5036273;28;20199;-73
2022/12/07 10:46:55;;;;;;;9.65;4.38;;;6.50;99.90;;;;;;5033040;28;20937;-78
2022/12/07 10:50:15;;;;;;;6.17;3.33;;;6.50;99.90;;;;;;5015503;28;20207;-80
2022/12/07 10:52:53;;;;;;;9.47;2.80;;;6.60;99.90;;;;;;5030235;28;20233;-80
2022/12/07 10:55:27;;;;;;;5.50;2.73;;;6.60;99.90;;;;;;5034885;28;20869;-78
2022/12/07 10:58:25;;;;;;;4.87;2.40;;;6.60;99.90;;;;;;5035322;28;20195;-82
2022/12/07 11:01:06;;;;;;;6.97;2.70;;;6.50;99.90;;;;;;5026145;28;20701;-83
2022/12/07 11:03:58;;;;;;;8.70;3.20;;;6.60;99.90;;;;;;5023886;28;20196;-78
2022/12/07 11:06:31;;;;;;;2.67;2.23;;;6.60;99.90;;;;;;5013172;28;20580;-74
2022/12/07 11:09:20;;;;;;;4.27;2.50;;;6.60;99.90;;;;;;5013613;28;20215;-73
2022/12/07 11:11:51;;;;;;;4.97;2.23;;;6.70;99.90;;;;;;5014023;28;20203;-75
2022/12/07 11:14:26;;;;;;;5.93;2.00;;;6.70;99.90;;;;;;5015493;28;20236;-75
2022/12/07 11:16:57;;;;;;;5.23;2.10;;;6.70;99.90;;;;;;5015448;28;20241;-74
2022/12/07 11:19:51;;;;;;;5.63;2.17;;;6.80;99.90;;;;;;5014621;28;20294;-73
2022/12/07 11:22:25;;;;;;;5.57;2.27;;;6.80;99.90;;;;;;5013992;28;20212;-73
2022/12/07 11:25:00;;;;;;;6.40;2.77;;;6.90;99.90;;;;;;5014471;28;20208;-74
2022/12/07 11:27:37;;;;;;;5.00;1.90;;;6.80;99.90;;;;;;5015499;28;20195;-73
2022/12/07 11:30:13;;;;;;;6.93;2.40;;;6.90;99.90;;;;;;5015451;28;20199;-73
2022/12/07 11:32:57;;;;;;;5.30;2.10;;;6.90;99.90;;;;;;5015521;28;20195;-75
2022/12/07 11:35:39;;;;;;;6.72;2.80;;;7.00;99.90;;;;;;5015127;28;20422;-81
2022/12/07 11:38:13;;;;;;;7.53;2.70;;;7.20;99.90;;;;;;5015664;28;20650;-80
2022/12/07 11:40:41;;;;;;;8.40;2.63;;;7.00;99.90;;;;;;5015183;28;20229;-82
2022/12/07 11:43:18;;;;;;;4.30;2.07;;;7.10;99.90;;;;;;5024676;28;20793;-81
2022/12/07 11:45:51;;;;;;;6.67;2.27;;;7.20;99.90;;;;;;5023902;28;20195;-80
2022/12/07 11:48:23;;;;;;;2.70;1.83;;;7.20;99.90;;;;;;5024332;28;20192;-79
2022/12/07 11:50:56;;;;;;;5.73;1.37;;;7.20;99.90;;;;;;5025822;28;20195;-81
2022/12/07 11:53:30;;;;;;;3.37;1.10;;;7.10;99.90;;;;;;5024518;28;20194;-81
2022/12/07 11:56:02;;;;;;;4.73;2.00;;;7.00;99.90;;;;;;5024375;28;20213;-79
2022/12/07 11:58:48;;;;;;;2.97;1.50;;;7.00;99.90;;;;;;5033251;28;20968;-80
2022/12/07 12:01:27;;;;;;;3.60;1.90;;;7.10;99.90;;;;;;5029461;28;20207;-79
2022/12/07 12:04:02;;;;;;;2.33;1.77;;;7.20;99.90;;;;;;5034891;28;20203;-80
2022/12/07 12:06:31;;;;;;;5.70;2.70;;;7.10;99.90;;;;;;5034100;28;20191;-82
2022/12/07 12:09:06;;;;;;;4.90;2.43;;;7.10;99.90;;;;;;5020507;28;20207;-81
2022/12/07 12:11:49;;;;;;;6.67;2.90;;;7.20;99.90;;;;;;5026899;28;20203;-81
2022/12/07 12:14:37;;;;;;;6.03;3.27;;;7.10;99.90;;;;;;5029699;28;20604;-87
2022/12/07 12:17:33;;;;;;;6.90;3.30;;;7.10;99.90;;;;;;5024643;28;20682;-79
2022/12/07 12:20:05;;;;;;;7.03;2.50;;;7.20;99.90;;;;;;5022487;28;20203;-81
2022/12/07 12:22:39;;;;;;;4.90;3.17;;;7.20;99.90;;;;;;5034568;28;20203;-83
2022/12/07 12:25:19;;;;;;;5.03;2.43;;;7.20;99.90;;;;;;5034429;28;20205;-81
2022/12/07 12:27:50;;;;;;;4.67;3.20;;;7.20;99.90;;;;;;5035041;28;20199;-82
2022/12/07 12:30:34;;;;;;;5.13;2.83;;;7.30;99.90;;;;;;5035057;28;20214;-82
2022/12/07 12:33:06;;;;;;;3.23;2.30;;;7.30;99.90;;;;;;5033184;28;20792;-84
2022/12/07 12:35:35;;;;;;;5.20;2.17;;;7.30;99.90;;;;;;5034164;28;20231;-83
2022/12/07 12:38:34;;;;;;;3.73;1.97;;;7.20;99.90;;;;;;5033470;28;20217;-82
2022/12/07 12:41:02;;;;;;;6.13;2.63;;;7.10;99.90;;;;;;4992113;28;20733;-85
2022/12/07 12:43:48;;;;;;;6.47;2.73;;;7.10;99.90;;;;;;5020333;28;20581;-84
2022/12/07 12:46:52;;;;;;;3.10;1.80;;;7.00;99.90;;;;;;5020527;28;20202;-83
2022/12/07 12:49:44;;;;;;;3.87;1.30;;;7.00;99.90;;;;;;4971968;28;20213;-74
2022/12/07 12:52:48;;;;;;;2.93;1.07;;;7.00;99.90;;;;;;5030317;28;20639;-74
2022/12/07 12:55:33;;;;;;;5.40;1.30;;;7.00;99.90;;;;;;5022936;28;20246;-75
2022/12/07 12:58:40;;;;;;;4.67;1.60;;;7.00;99.90;;;;;;4998759;28;20584;-79
2022/12/07 13:01:38;;;;;;;4.43;1.20;;;7.00;99.90;;;;;;5020414;28;20221;-81
2022/12/07 13:04:19;;;;;;;2.17;1.27;;;6.90;99.90;;;;;;5028377;28;20724;-79
2022/12/07 13:06:46;;;;;;;5.87;2.03;;;6.90;99.90;;;;;;5024293;28;20214;-79
2022/12/07 13:09:21;;;;;;;1.83;1.33;;;7.00;99.90;;;;;;5031709;28;20203;-78
2022/12/07 13:11:56;;;;;;;4.23;1.30;;;6.90;99.90;;;;;;5019132;28;20196;-78
2022/12/07 13:14:52;;;;;;;3.95;1.63;;;6.90;99.90;;;;;;5018819;28;20456;-81
2022/12/07 13:17:52;;;;;;;4.43;1.90;;;7.00;99.90;;;;;;5030666;28;20199;-83
2022/12/07 13:20:47;;;;;;;5.70;2.27;;;7.00;99.90;;;;;;5015733;28;20207;-81
2022/12/07 13:23:18;;;;;;;4.87;2.10;;;7.20;99.90;;;;;;5018480;28;20580;-80